createdAt,value
2018-06-09T00:00:27.749Z,22.30
2018-06-09T00:01:32.345Z,22.40
2018-06-09T00:02:37.022Z,22.30
2018-06-09T00:03:41.417Z,22.30
2018-06-09T00:04:45.784Z,22.30
2018-06-09T00:05:50.146Z,22.20
2018-06-09T00:06:54.270Z,22.20
2018-06-09T00:07:58.437Z,22.20
2018-06-09T00:09:02.863Z,22.20
2018-06-09T00:10:06.982Z,22.30
2018-06-09T00:11:11.523Z,22.30
2018-06-09T00:12:15.745Z,22.30
2018-06-09T00:13:19.912Z,22.30
2018-06-09T00:14:24.324Z,22.90
2018-06-09T00:15:28.697Z,22.20
2018-06-09T00:16:33.078Z,22.30
2018-06-09T00:17:37.461Z,22.30
2018-06-09T00:18:41.767Z,22.30
2018-06-09T00:19:46.339Z,22.30
2018-06-09T00:20:50.704Z,22.30
2018-06-09T00:21:55.255Z,22.30
2018-06-09T00:22:59.982Z,22.30
2018-06-09T00:24:04.288Z,22.30
2018-06-09T00:25:08.707Z,22.30
2018-06-09T00:26:13.119Z,22.30
2018-06-09T00:27:17.527Z,22.30
2018-06-09T00:28:21.862Z,22.30
2018-06-09T00:29:26.229Z,22.50
2018-06-09T00:30:30.436Z,22.20
2018-06-09T00:31:34.918Z,22.20
2018-06-09T00:32:39.291Z,22.20
2018-06-09T00:33:43.371Z,22.20
2018-06-09T00:34:47.638Z,22.20
2018-06-09T00:35:52.186Z,22.20
2018-06-09T00:36:56.870Z,22.20
2018-06-09T00:38:01.267Z,22.20
2018-06-09T00:39:07.725Z,22.20
2018-06-09T00:40:11.875Z,22.20
2018-06-09T00:41:16.297Z,22.20
2018-06-09T00:42:20.376Z,22.20
2018-06-09T00:43:24.423Z,22.20
2018-06-09T00:44:28.519Z,22.20
2018-06-09T00:45:32.650Z,22.20
2018-06-09T00:46:36.727Z,22.20
2018-06-09T00:47:41.007Z,22.20
2018-06-09T00:48:45.361Z,22.20
2018-06-09T00:49:49.412Z,22.20
2018-06-09T00:50:53.835Z,22.10
2018-06-09T00:51:58.389Z,22.10
2018-06-09T00:53:02.546Z,22.10
2018-06-09T00:54:07.061Z,22.10
2018-06-09T00:55:11.162Z,22.10
2018-06-09T00:56:26.322Z,22.00
2018-06-09T00:57:30.459Z,22.10
2018-06-09T00:58:34.531Z,22.10
2018-06-09T00:59:38.730Z,22.10
2018-06-09T01:00:42.854Z,22.00
2018-06-09T01:01:47.008Z,22.10
2018-06-09T01:02:51.143Z,22.10
2018-06-09T01:03:55.475Z,23.20
2018-06-09T01:04:59.843Z,22.10
2018-06-09T01:06:04.193Z,22.10
2018-06-09T01:07:08.826Z,21.60
2018-06-09T01:08:13.966Z,22.00
2018-06-09T01:09:18.391Z,22.10
2018-06-09T01:10:22.780Z,21.40
2018-06-09T01:11:27.098Z,22.10
2018-06-09T01:12:31.486Z,22.10
2018-06-09T01:13:36.076Z,22.10
2018-06-09T01:14:40.464Z,22.10
2018-06-09T01:15:44.797Z,22.10
2018-06-09T01:16:49.141Z,22.10
2018-06-09T01:17:53.514Z,22.10
2018-06-09T01:18:57.866Z,22.10
2018-06-09T01:20:02.655Z,22.10
2018-06-09T01:21:06.759Z,21.00
2018-06-09T01:22:10.871Z,22.10
2018-06-09T01:23:15.062Z,22.10
2018-06-09T01:24:19.277Z,22.00
2018-06-09T01:25:23.391Z,22.10
2018-06-09T01:26:27.483Z,22.10
2018-06-09T01:27:31.594Z,22.00
2018-06-09T01:28:35.716Z,22.00
2018-06-09T01:29:39.760Z,22.10
2018-06-09T01:30:44.095Z,22.00
2018-06-09T01:31:48.796Z,22.00
2018-06-09T01:32:53.088Z,22.10
2018-06-09T01:33:57.482Z,22.10
2018-06-09T01:35:01.864Z,22.10
2018-06-09T01:36:06.208Z,22.00
2018-06-09T01:37:10.706Z,22.00
2018-06-09T01:38:15.320Z,22.00
2018-06-09T01:39:19.692Z,22.00
2018-06-09T01:40:24.042Z,21.90
2018-06-09T01:41:28.397Z,22.00
2018-06-09T01:42:32.804Z,22.00
2018-06-09T01:43:37.168Z,22.00
2018-06-09T01:44:41.490Z,22.00
2018-06-09T01:45:45.881Z,22.00
2018-06-09T01:46:50.266Z,22.00
2018-06-09T01:47:54.708Z,22.00
2018-06-09T01:48:59.079Z,22.00
2018-06-09T01:50:03.835Z,22.00
2018-06-09T01:51:08.283Z,22.00
2018-06-09T01:52:12.676Z,22.00
2018-06-09T01:53:17.057Z,22.00
2018-06-09T01:54:21.403Z,22.00
2018-06-09T01:55:26.002Z,22.00
2018-06-09T01:56:30.752Z,22.00
2018-06-09T01:57:35.142Z,22.00
2018-06-09T01:58:39.473Z,22.00
2018-06-09T01:59:43.855Z,22.00
2018-06-09T02:00:48.239Z,21.90
2018-06-09T02:01:52.619Z,22.00
2018-06-09T02:02:56.989Z,21.90
2018-06-09T02:04:01.796Z,21.90
2018-06-09T02:05:06.104Z,21.90
2018-06-09T02:06:10.412Z,22.00
2018-06-09T02:07:14.511Z,22.00
2018-06-09T02:08:18.926Z,21.90
2018-06-09T02:09:23.091Z,21.90
2018-06-09T02:10:27.213Z,21.90
2018-06-09T02:11:31.350Z,21.90
2018-06-09T02:12:35.437Z,21.90
2018-06-09T02:13:39.550Z,21.90
2018-06-09T02:14:43.902Z,21.90
2018-06-09T02:15:47.983Z,21.90
2018-06-09T02:16:52.531Z,21.90
2018-06-09T02:17:56.954Z,21.90
2018-06-09T02:19:40.153Z,21.90
2018-06-09T02:20:44.485Z,21.80
2018-06-09T02:21:48.790Z,21.80
2018-06-09T02:22:53.228Z,21.80
2018-06-09T02:23:57.583Z,21.80
2018-06-09T02:25:01.780Z,21.20
2018-06-09T02:26:05.894Z,21.80
2018-06-09T02:27:10.473Z,21.80
2018-06-09T02:29:18.204Z,21.80
2018-06-09T02:30:22.383Z,21.80
2018-06-09T02:31:26.594Z,21.80
2018-06-09T02:32:30.982Z,21.80
2018-06-09T02:33:35.266Z,21.80
2018-06-09T02:34:39.524Z,21.80
2018-06-09T02:35:43.791Z,21.80
2018-06-09T02:36:47.883Z,21.50
2018-06-09T02:37:52.081Z,21.80
2018-06-09T02:40:30.904Z,21.80
2018-06-09T02:41:35.055Z,21.70
2018-06-09T02:42:39.209Z,21.70
2018-06-09T02:43:43.473Z,20.50
2018-06-09T02:44:47.900Z,21.70
2018-06-09T02:45:52.027Z,21.70
2018-06-09T02:46:56.359Z,21.80
2018-06-09T02:48:00.719Z,21.80
2018-06-09T02:49:05.193Z,21.70
2018-06-09T02:50:09.521Z,21.70
2018-06-09T02:51:14.362Z,21.80
2018-06-09T02:52:18.773Z,21.80
2018-06-09T02:53:23.176Z,21.70
2018-06-09T02:54:27.792Z,21.70
2018-06-09T02:55:32.141Z,21.70
2018-06-09T02:56:36.604Z,21.70
2018-06-09T02:57:40.979Z,21.70
2018-06-09T02:58:45.347Z,21.70
2018-06-09T02:59:49.642Z,21.70
2018-06-09T03:00:54.040Z,21.70
2018-06-09T03:01:58.458Z,21.70
2018-06-09T03:03:03.161Z,21.70
2018-06-09T03:04:07.588Z,21.60
2018-06-09T03:05:11.830Z,21.60
2018-06-09T03:06:15.985Z,21.60
2018-06-09T03:07:20.103Z,21.60
2018-06-09T03:08:24.177Z,21.60
2018-06-09T03:09:28.652Z,21.60
2018-06-09T03:10:32.805Z,21.60
2018-06-09T03:11:36.915Z,21.50
2018-06-09T03:12:41.264Z,21.50
2018-06-09T03:13:45.631Z,21.60
2018-06-09T03:14:49.976Z,21.60
2018-06-09T03:15:54.449Z,21.60
2018-06-09T03:16:58.612Z,21.60
2018-06-09T03:18:02.781Z,21.60
2018-06-09T03:19:06.886Z,21.20
2018-06-09T03:20:11.011Z,21.50
2018-06-09T03:21:15.555Z,21.60
2018-06-09T03:22:19.639Z,21.60
2018-06-09T03:23:23.789Z,21.60
2018-06-09T03:24:27.887Z,21.60
2018-06-09T03:25:31.977Z,21.60
2018-06-09T03:26:36.095Z,21.60
2018-06-09T03:27:40.661Z,21.60
2018-06-09T03:29:48.563Z,21.60
2018-06-09T03:30:52.717Z,21.60
2018-06-09T03:31:56.998Z,21.60
2018-06-09T03:33:01.073Z,21.60
2018-06-09T03:34:05.999Z,21.60
2018-06-09T03:35:10.025Z,21.60
2018-06-09T03:37:17.797Z,21.60
2018-06-09T03:38:21.940Z,21.60
2018-06-09T03:39:26.388Z,21.60
2018-06-09T03:40:30.515Z,21.60
2018-06-09T03:41:34.723Z,21.60
2018-06-09T03:42:38.874Z,21.60
2018-06-09T03:43:43.001Z,21.60
2018-06-09T03:44:47.372Z,21.60
2018-06-09T03:45:52.311Z,21.70
2018-06-09T03:46:56.641Z,21.60
2018-06-09T03:48:01.200Z,21.60
2018-06-09T03:49:05.610Z,21.60
2018-06-09T03:50:10.133Z,21.60
2018-06-09T03:52:19.053Z,21.60
2018-06-09T03:53:23.237Z,21.60
2018-06-09T03:54:27.682Z,21.70
2018-06-09T03:55:31.827Z,21.60
2018-06-09T03:56:35.917Z,21.50
2018-06-09T03:57:40.105Z,20.60
2018-06-09T03:58:44.259Z,21.60
2018-06-09T03:59:48.379Z,21.60
2018-06-09T04:00:52.581Z,21.60
2018-06-09T04:01:56.993Z,21.60
2018-06-09T04:03:01.059Z,21.60
2018-06-09T04:04:05.231Z,21.60
2018-06-09T04:05:09.596Z,21.60
2018-06-09T04:06:13.831Z,21.60
2018-06-09T04:07:18.023Z,21.50
2018-06-09T04:08:22.471Z,21.50
2018-06-09T04:09:26.739Z,20.50
2018-06-09T04:10:31.313Z,21.60
2018-06-09T04:11:35.659Z,21.60
2018-06-09T04:13:43.851Z,21.30
2018-06-09T04:14:48.178Z,21.60
2018-06-09T04:16:56.384Z,21.50
2018-06-09T04:18:00.573Z,21.50
2018-06-09T04:19:04.972Z,21.50
2018-06-09T04:20:09.179Z,21.50
2018-06-09T04:21:13.564Z,21.50
2018-06-09T04:22:18.267Z,21.60
2018-06-09T04:23:23.371Z,21.60
2018-06-09T04:24:27.487Z,21.60
2018-06-09T04:25:31.685Z,21.60
2018-06-09T04:26:35.789Z,21.60
2018-06-09T04:27:39.972Z,21.60
2018-06-09T04:29:47.817Z,21.50
2018-06-09T04:30:52.265Z,21.50
2018-06-09T04:33:00.724Z,21.40
2018-06-09T04:34:05.211Z,21.60
2018-06-09T04:35:09.632Z,21.50
2018-06-09T04:36:14.030Z,21.50
2018-06-09T04:37:18.432Z,21.50
2018-06-09T04:38:22.807Z,21.50
2018-06-09T04:39:26.888Z,21.50
2018-06-09T04:40:31.277Z,21.50
2018-06-09T04:41:35.514Z,21.50
2018-06-09T04:42:39.783Z,21.60
2018-06-09T04:43:44.056Z,21.50
2018-06-09T04:44:48.561Z,21.50
2018-06-09T04:45:52.893Z,21.50
2018-06-09T04:46:57.368Z,21.50
2018-06-09T04:48:01.920Z,21.50
2018-06-09T04:49:06.311Z,21.50
2018-06-09T04:51:14.353Z,21.00
2018-06-09T04:52:18.751Z,21.60
2018-06-09T04:53:23.556Z,21.60
2018-06-09T04:55:31.312Z,21.60
2018-06-09T04:56:35.491Z,21.50
2018-06-09T04:57:39.616Z,21.50
2018-06-09T04:58:43.776Z,21.40
2018-06-09T04:59:47.927Z,21.50
2018-06-09T05:00:52.056Z,21.50
2018-06-09T05:01:56.176Z,21.50
2018-06-09T05:04:03.980Z,21.60
2018-06-09T05:05:08.176Z,21.60
2018-06-09T05:06:12.366Z,21.60
2018-06-09T05:07:16.747Z,21.60
2018-06-09T05:08:20.924Z,21.60
2018-06-09T05:09:25.117Z,21.60
2018-06-09T05:10:29.367Z,21.60
2018-06-09T05:11:33.666Z,21.50
2018-06-09T05:12:37.939Z,21.60
2018-06-09T05:13:46.226Z,21.50
2018-06-09T05:14:50.363Z,21.50
2018-06-09T05:15:55.139Z,21.60
2018-06-09T05:17:00.048Z,21.60
2018-06-09T05:18:04.330Z,21.50
2018-06-09T05:19:08.918Z,21.50
2018-06-09T05:20:13.515Z,21.50
2018-06-09T05:21:18.332Z,21.60
2018-06-09T05:22:22.787Z,21.60
2018-06-09T05:23:27.762Z,21.60
2018-06-09T05:24:32.181Z,21.60
2018-06-09T05:25:36.662Z,21.60
2018-06-09T05:26:41.019Z,21.60
2018-06-09T05:27:45.517Z,21.60
2018-06-09T05:28:49.734Z,21.60
2018-06-09T05:29:54.201Z,21.60
2018-06-09T05:30:58.453Z,21.60
2018-06-09T05:32:02.519Z,21.60
2018-06-09T05:34:10.319Z,21.60
2018-06-09T05:37:22.126Z,21.50
2018-06-09T05:38:26.273Z,21.60
2018-06-09T05:39:30.727Z,21.60
2018-06-09T05:40:35.164Z,21.60
2018-06-09T05:41:39.879Z,21.60
2018-06-09T05:42:44.377Z,21.50
2018-06-09T05:44:52.591Z,21.50
2018-06-09T05:45:56.981Z,21.60
2018-06-09T05:47:01.339Z,21.60
2018-06-09T05:48:05.826Z,21.60
2018-06-09T05:49:10.187Z,21.60
2018-06-09T05:50:14.563Z,21.60
2018-06-09T05:51:19.094Z,21.60
2018-06-09T05:52:23.524Z,21.60
2018-06-09T05:54:32.255Z,21.60
2018-06-09T05:55:36.702Z,21.60
2018-06-09T05:56:41.062Z,21.60
2018-06-09T05:57:45.604Z,21.50
2018-06-09T05:58:50.012Z,21.50
2018-06-09T06:00:58.746Z,20.00
2018-06-09T06:02:03.127Z,21.60
2018-06-09T06:03:07.540Z,21.50
2018-06-09T06:04:12.026Z,21.50
2018-06-09T06:05:16.488Z,21.50
2018-06-09T06:06:20.940Z,21.60
2018-06-09T06:07:25.187Z,21.50
2018-06-09T06:08:29.370Z,20.50
2018-06-09T06:09:33.494Z,21.60
2018-06-09T06:11:41.800Z,21.50
2018-06-09T06:12:46.032Z,21.40
2018-06-09T06:13:50.135Z,21.50
2018-06-09T06:14:54.321Z,21.40
2018-06-09T06:15:58.420Z,21.50
2018-06-09T06:17:02.947Z,21.50
2018-06-09T06:18:07.583Z,21.50
2018-06-09T06:19:11.691Z,21.50
2018-06-09T06:20:16.100Z,21.60
2018-06-09T06:21:20.558Z,21.60
2018-06-09T06:22:24.947Z,21.60
2018-06-09T06:23:29.358Z,21.60
2018-06-09T06:24:33.804Z,21.60
2018-06-09T06:25:38.223Z,21.50
2018-06-09T06:26:42.685Z,21.50
2018-06-09T06:27:47.158Z,21.50
2018-06-09T06:28:51.601Z,21.50
2018-06-09T06:30:00.763Z,21.50
2018-06-09T06:31:05.382Z,21.50
2018-06-09T06:32:09.600Z,21.50
2018-06-09T06:33:14.097Z,21.50
2018-06-09T06:34:18.234Z,21.60
2018-06-09T06:35:22.439Z,21.60
2018-06-09T06:36:26.884Z,21.70
2018-06-09T06:37:31.154Z,21.70
2018-06-09T06:38:35.344Z,21.70
2018-06-09T06:39:39.577Z,21.70
2018-06-09T06:40:43.745Z,21.70
2018-06-09T06:41:47.922Z,21.60
2018-06-09T06:42:52.091Z,21.60
2018-06-09T06:43:56.262Z,21.60
2018-06-09T06:45:00.443Z,21.60
2018-06-09T06:46:04.679Z,21.60
2018-06-09T06:47:08.829Z,21.60
2018-06-09T06:48:13.429Z,21.60
2018-06-09T06:49:17.593Z,21.60
2018-06-09T06:50:21.740Z,21.60
2018-06-09T06:51:25.931Z,21.60
2018-06-09T06:52:30.108Z,21.60
2018-06-09T06:53:34.278Z,21.60
2018-06-09T06:54:38.571Z,21.60
2018-06-09T06:55:42.982Z,20.80
2018-06-09T06:56:49.990Z,22.20
2018-06-09T06:57:54.391Z,21.50
2018-06-09T06:58:58.824Z,21.60
2018-06-09T07:00:03.438Z,21.60
2018-06-09T07:01:07.977Z,21.60
2018-06-09T07:02:12.417Z,21.60
2018-06-09T07:03:16.843Z,21.60
2018-06-09T07:04:21.344Z,21.60
2018-06-09T07:05:25.508Z,21.50
2018-06-09T07:06:30.104Z,21.60
2018-06-09T07:07:34.308Z,21.50
2018-06-09T07:08:38.534Z,21.50
2018-06-09T07:09:42.665Z,21.50
2018-06-09T07:10:46.824Z,21.50
2018-06-09T07:11:51.462Z,21.50
2018-06-09T07:12:56.071Z,21.50
2018-06-09T07:14:00.163Z,21.50
2018-06-09T07:15:04.284Z,21.50
2018-06-09T07:16:08.426Z,21.60
2018-06-09T07:17:12.554Z,21.60
2018-06-09T07:18:16.846Z,21.70
2018-06-09T07:19:21.153Z,21.70
2018-06-09T07:20:25.303Z,21.80
2018-06-09T07:21:31.124Z,21.80
2018-06-09T07:22:40.049Z,21.80
2018-06-09T07:23:44.454Z,21.80
2018-06-09T07:24:49.451Z,21.80
2018-06-09T07:25:53.899Z,21.80
2018-06-09T07:26:58.304Z,21.80
2018-06-09T07:28:03.352Z,21.80
2018-06-09T07:29:07.545Z,21.80
2018-06-09T07:30:12.108Z,21.80
2018-06-09T07:31:17.059Z,21.80
2018-06-09T07:32:22.675Z,21.80
2018-06-09T07:33:27.043Z,21.80
2018-06-09T07:34:32.873Z,21.80
2018-06-09T07:35:37.375Z,21.80
2018-06-09T07:36:42.221Z,21.80
2018-06-09T07:37:46.561Z,21.80
2018-06-09T07:38:50.952Z,21.90
2018-06-09T07:39:55.318Z,21.90
2018-06-09T07:40:59.635Z,21.90
2018-06-09T07:42:04.094Z,21.90
2018-06-09T07:43:08.430Z,21.90
2018-06-09T07:44:12.828Z,21.90
2018-06-09T07:45:17.163Z,21.90
2018-06-09T07:46:34.274Z,21.20
2018-06-09T07:47:38.714Z,21.90
2018-06-09T07:48:43.092Z,21.90
2018-06-09T07:49:47.525Z,21.90
2018-06-09T07:50:51.943Z,22.00
2018-06-09T07:51:56.325Z,22.00
2018-06-09T07:53:00.816Z,22.00
2018-06-09T07:54:05.228Z,21.10
2018-06-09T07:55:09.875Z,22.00
2018-06-09T07:56:14.395Z,22.00
2018-06-09T07:57:18.786Z,22.00
2018-06-09T07:58:23.200Z,22.10
2018-06-09T07:59:27.514Z,22.00
2018-06-09T08:00:32.075Z,22.00
2018-06-09T08:01:36.843Z,22.10
2018-06-09T08:02:41.279Z,22.10
2018-06-09T08:03:45.506Z,22.10
2018-06-09T08:04:51.015Z,23.70
2018-06-09T08:05:55.649Z,20.40
2018-06-09T08:07:00.137Z,22.20
2018-06-09T08:08:04.591Z,22.20
2018-06-09T08:09:08.966Z,22.20
2018-06-09T08:10:13.392Z,22.20
2018-06-09T08:11:17.898Z,22.10
2018-06-09T08:12:22.352Z,23.40
2018-06-09T08:13:26.990Z,21.50
2018-06-09T08:14:31.374Z,22.10
2018-06-09T08:15:35.891Z,22.20
2018-06-09T08:16:40.370Z,22.20
2018-06-09T08:17:44.753Z,22.20
2018-06-09T08:18:49.358Z,22.20
2018-06-09T08:19:54.295Z,22.20
2018-06-09T08:20:59.348Z,22.10
2018-06-09T08:22:03.782Z,22.20
2018-06-09T08:23:08.293Z,22.20
2018-06-09T08:24:12.566Z,22.30
2018-06-09T08:25:16.783Z,22.20
2018-06-09T08:26:21.042Z,22.20
2018-06-09T08:27:25.348Z,22.20
2018-06-09T08:28:29.592Z,22.20
2018-06-09T08:29:33.951Z,22.30
2018-06-09T08:30:38.285Z,22.30
2018-06-09T08:31:42.771Z,22.30
2018-06-09T08:32:46.941Z,22.30
2018-06-09T08:33:51.066Z,22.40
2018-06-09T08:34:55.253Z,22.40
2018-06-09T08:35:59.663Z,22.30
2018-06-09T08:37:03.827Z,22.40
2018-06-09T08:38:08.261Z,22.50
2018-06-09T08:39:12.464Z,22.50
2018-06-09T08:40:16.568Z,22.50
2018-06-09T08:41:20.665Z,22.60
2018-06-09T08:42:24.851Z,22.60
2018-06-09T08:43:29.019Z,21.90
2018-06-09T08:45:37.382Z,22.50
2018-06-09T08:46:41.903Z,22.50
2018-06-09T08:47:46.539Z,22.40
2018-06-09T08:48:51.165Z,22.40
2018-06-09T08:49:55.546Z,22.40
2018-06-09T08:51:00.008Z,22.50
2018-06-09T08:52:04.281Z,22.80
2018-06-09T08:53:08.682Z,22.60
2018-06-09T08:54:13.614Z,22.60
2018-06-09T08:55:18.102Z,23.00
2018-06-09T08:56:22.820Z,22.60
2018-06-09T08:57:27.163Z,22.60
2018-06-09T08:58:31.513Z,22.60
2018-06-09T08:59:35.835Z,22.60
2018-06-09T09:00:40.351Z,22.60
2018-06-09T09:01:44.933Z,22.60
2018-06-09T09:02:49.296Z,22.60
2018-06-09T09:03:53.626Z,22.70
2018-06-09T09:04:58.077Z,22.70
2018-06-09T09:06:02.983Z,22.70
2018-06-09T09:07:07.751Z,22.80
2018-06-09T09:08:12.244Z,22.80
2018-06-09T09:09:16.697Z,22.80
2018-06-09T09:10:21.155Z,22.90
2018-06-09T09:11:25.636Z,22.90
2018-06-09T09:12:30.050Z,23.00
2018-06-09T09:13:34.443Z,23.00
2018-06-09T09:14:39.227Z,23.00
2018-06-09T09:15:43.667Z,23.00
2018-06-09T09:16:47.843Z,23.00
2018-06-09T09:17:52.020Z,23.00
2018-06-09T09:18:56.117Z,23.10
2018-06-09T09:20:00.251Z,23.20
2018-06-09T09:21:04.479Z,23.20
2018-06-09T09:22:08.919Z,23.20
2018-06-09T09:23:13.349Z,24.30
2018-06-09T09:24:17.828Z,23.30
2018-06-09T09:25:22.282Z,23.40
2018-06-09T09:26:27.036Z,23.40
2018-06-09T09:27:31.650Z,23.40
2018-06-09T09:28:36.044Z,23.40
2018-06-09T09:29:40.267Z,23.40
2018-06-09T09:30:44.373Z,23.40
2018-06-09T09:31:48.517Z,23.40
2018-06-09T09:32:52.975Z,23.40
2018-06-09T09:33:57.133Z,23.40
2018-06-09T09:35:01.239Z,23.40
2018-06-09T09:36:05.361Z,23.40
2018-06-09T09:37:09.434Z,23.40
2018-06-09T09:38:13.585Z,23.50
2018-06-09T09:39:17.823Z,23.50
2018-06-09T09:40:21.899Z,23.50
2018-06-09T09:41:26.107Z,23.50
2018-06-09T09:42:30.300Z,23.50
2018-06-09T09:43:34.613Z,23.50
2018-06-09T09:44:39.182Z,23.60
2018-06-09T09:45:43.649Z,23.60
2018-06-09T09:46:47.826Z,23.60
2018-06-09T09:47:51.958Z,22.50
2018-06-09T09:48:57.111Z,23.80
2018-06-09T09:50:02.905Z,23.80
2018-06-09T09:51:07.776Z,23.80
2018-06-09T09:52:12.589Z,24.20
2018-06-09T09:53:16.987Z,23.70
2018-06-09T09:54:21.323Z,23.70
2018-06-09T09:55:25.763Z,23.70
2018-06-09T09:56:30.536Z,23.70
2018-06-09T09:57:46.799Z,23.80
2018-06-09T09:58:51.903Z,23.80
2018-06-09T09:59:56.537Z,23.80
2018-06-09T10:01:01.571Z,23.80
2018-06-09T10:02:07.159Z,23.80
2018-06-09T10:03:12.282Z,23.80
2018-06-09T10:05:21.016Z,23.90
2018-06-09T10:06:26.334Z,23.90
2018-06-09T10:07:31.046Z,23.90
2018-06-09T10:08:36.019Z,24.00
2018-06-09T10:09:40.572Z,24.00
2018-06-09T10:10:45.424Z,24.00
2018-06-09T10:11:49.784Z,24.10
2018-06-09T10:12:54.179Z,24.20
2018-06-09T10:13:59.424Z,24.20
2018-06-09T10:15:04.423Z,24.30
2018-06-09T10:16:09.115Z,24.20
2018-06-09T10:17:13.893Z,25.50
2018-06-09T10:19:22.341Z,24.30
2018-06-09T10:20:26.800Z,24.20
2018-06-09T10:21:31.588Z,24.20
2018-06-09T10:22:45.959Z,24.20
2018-06-09T10:24:55.291Z,24.30
2018-06-09T10:27:29.216Z,23.30
2018-06-09T10:28:34.410Z,23.00
2018-06-09T10:29:38.889Z,24.60
2018-06-09T10:30:44.044Z,24.70
2018-06-09T10:31:48.579Z,24.80
2018-06-09T10:32:53.085Z,24.80
2018-06-09T10:33:58.002Z,24.90
2018-06-09T10:35:02.483Z,25.00
2018-06-09T10:36:07.129Z,25.00
2018-06-09T10:37:14.046Z,25.10
2018-06-09T10:38:18.894Z,26.10
2018-06-09T10:39:24.034Z,25.30
2018-06-09T10:40:28.598Z,25.30
2018-06-09T10:41:33.326Z,25.50
2018-06-09T10:42:37.759Z,25.60
2018-06-09T10:43:42.557Z,25.70
2018-06-09T10:44:47.102Z,26.00
2018-06-09T10:45:51.814Z,26.10
2018-06-09T10:46:56.892Z,26.10
2018-06-09T10:48:01.344Z,26.10
2018-06-09T10:49:05.675Z,26.10
2018-06-09T10:50:09.996Z,26.10
2018-06-09T10:51:14.938Z,26.10
2018-06-09T10:52:19.612Z,26.10
2018-06-09T10:53:24.328Z,26.20
2018-06-09T10:54:28.454Z,26.20
2018-06-09T10:55:32.596Z,26.30
2018-06-09T10:56:36.767Z,26.60
2018-06-09T10:57:41.218Z,26.60
2018-06-09T10:58:45.408Z,26.70
2018-06-09T10:59:49.832Z,26.80
2018-06-09T11:00:54.053Z,27.00
2018-06-09T11:01:58.690Z,27.00
2018-06-09T11:03:17.926Z,27.00
2018-06-09T11:04:22.288Z,27.00
2018-06-09T11:05:26.712Z,27.00
2018-06-09T11:06:31.133Z,27.00
2018-06-09T11:07:35.436Z,27.10
2018-06-09T11:08:40.040Z,27.10
2018-06-09T11:09:44.171Z,27.10
2018-06-09T11:10:48.431Z,27.10
2018-06-09T11:11:52.679Z,27.90
2018-06-09T11:12:56.927Z,27.20
2018-06-09T11:14:01.697Z,27.30
2018-06-09T11:15:06.034Z,27.40
2018-06-09T11:16:10.346Z,27.40
2018-06-09T11:17:14.727Z,27.40
2018-06-09T11:19:22.939Z,27.50
2018-06-09T11:20:27.631Z,27.60
2018-06-09T11:21:32.073Z,27.60
2018-06-09T11:22:36.297Z,27.70
2018-06-09T11:23:40.474Z,27.70
2018-06-09T11:24:44.633Z,27.80
2018-06-09T11:25:48.844Z,27.90
2018-06-09T11:26:52.951Z,27.90
2018-06-09T11:27:57.129Z,27.90
2018-06-09T11:29:01.329Z,27.50
2018-06-09T11:30:05.547Z,28.00
2018-06-09T11:31:09.726Z,28.10
2018-06-09T11:32:14.121Z,28.10
2018-06-09T11:33:18.332Z,28.10
2018-06-09T11:34:23.343Z,28.00
2018-06-09T11:35:27.828Z,28.00
2018-06-09T11:36:32.265Z,28.00
2018-06-09T11:37:36.735Z,28.10
2018-06-09T11:38:41.480Z,28.20
2018-06-09T11:39:46.092Z,28.20
2018-06-09T11:40:50.677Z,28.30
2018-06-09T11:41:55.107Z,28.30
2018-06-09T11:44:06.182Z,28.40
2018-06-09T11:45:10.662Z,28.40
2018-06-09T11:46:15.500Z,29.40
2018-06-09T11:47:20.167Z,28.60
2018-06-09T11:48:24.610Z,28.60
2018-06-09T11:49:28.999Z,28.70
2018-06-09T11:50:33.389Z,28.70
2018-06-09T11:51:37.865Z,28.70
2018-06-09T11:52:42.612Z,28.70
2018-06-09T11:53:46.837Z,28.80
2018-06-09T11:54:51.014Z,28.80
2018-06-09T11:55:55.191Z,28.80
2018-06-09T11:56:59.647Z,28.90
2018-06-09T11:58:04.142Z,28.90
2018-06-09T11:59:08.578Z,28.90
2018-06-09T12:00:13.079Z,28.90
2018-06-09T12:01:17.588Z,29.00
2018-06-09T12:02:22.604Z,29.90
2018-06-09T12:03:27.726Z,29.10
2018-06-09T12:04:32.104Z,29.00
2018-06-09T12:05:36.336Z,29.90
2018-06-09T12:06:40.549Z,29.20
2018-06-09T12:07:44.969Z,29.20
2018-06-09T12:08:49.506Z,29.20
2018-06-09T12:09:53.748Z,29.90
2018-06-09T12:10:57.913Z,29.20
2018-06-09T12:12:03.422Z,29.20
2018-06-09T12:13:07.848Z,29.10
2018-06-09T12:14:12.504Z,29.10
2018-06-09T12:15:16.881Z,29.10
2018-06-09T12:16:21.478Z,29.10
2018-06-09T12:17:26.048Z,29.10
2018-06-09T12:18:30.414Z,29.10
2018-06-09T12:19:34.837Z,29.20
2018-06-09T12:20:39.463Z,29.20
2018-06-09T12:21:43.924Z,29.30
2018-06-09T12:22:48.390Z,29.80
2018-06-09T12:23:52.666Z,29.30
2018-06-09T12:24:57.869Z,29.40
2018-06-09T12:26:03.867Z,29.30
2018-06-09T12:27:08.198Z,29.40
2018-06-09T12:28:14.253Z,29.30
2018-06-09T12:29:18.486Z,29.30
2018-06-09T12:30:25.007Z,29.40
2018-06-09T12:31:29.170Z,29.40
2018-06-09T12:32:33.705Z,29.40
2018-06-09T12:33:38.440Z,30.50
2018-06-09T12:34:43.166Z,29.60
2018-06-09T12:35:47.641Z,29.60
2018-06-09T12:36:52.370Z,29.60
2018-06-09T12:37:57.200Z,29.60
2018-06-09T12:39:01.710Z,28.70
2018-06-09T12:40:06.555Z,29.60
2018-06-09T12:41:10.863Z,29.60
2018-06-09T12:42:15.039Z,29.60
2018-06-09T12:43:19.340Z,29.50
2018-06-09T12:44:23.613Z,29.60
2018-06-09T12:45:27.775Z,29.70
2018-06-09T12:46:31.898Z,29.60
2018-06-09T12:47:36.120Z,28.90
2018-06-09T12:48:40.345Z,29.60
2018-06-09T12:49:44.754Z,29.70
2018-06-09T12:50:49.031Z,29.60
2018-06-09T12:51:53.239Z,29.60
2018-06-09T12:52:57.694Z,29.60
2018-06-09T12:54:01.929Z,29.50
2018-06-09T12:55:06.134Z,29.50
2018-06-09T12:56:10.450Z,29.50
2018-06-09T12:57:14.585Z,29.50
2018-06-09T12:58:19.214Z,29.50
2018-06-09T12:59:23.825Z,29.50
2018-06-09T13:00:28.164Z,29.50
2018-06-09T13:01:32.757Z,29.50
2018-06-09T13:02:37.100Z,29.40
2018-06-09T13:03:41.355Z,29.40
2018-06-09T13:04:46.155Z,29.00
2018-06-09T13:05:50.506Z,29.30
2018-06-09T13:06:56.852Z,29.20
2018-06-09T13:08:02.224Z,29.10
2018-06-09T13:10:51.974Z,29.00
2018-06-09T13:11:56.459Z,28.90
2018-06-09T13:14:05.441Z,28.80
2018-06-09T13:15:10.019Z,28.80
2018-06-09T13:16:14.411Z,28.70
2018-06-09T13:17:18.926Z,28.60
2018-06-09T13:18:23.665Z,28.60
2018-06-09T13:19:28.534Z,27.60
2018-06-09T13:20:49.991Z,28.50
2018-06-09T13:21:54.271Z,28.50
2018-06-09T13:22:59.771Z,28.50
2018-06-09T13:24:06.158Z,28.50
2018-06-09T13:25:10.328Z,28.50
2018-06-09T13:26:14.480Z,28.50
2018-06-09T13:27:19.494Z,28.40
2018-06-09T13:28:23.832Z,28.40
2018-06-09T13:29:28.316Z,29.10
2018-06-09T13:30:33.465Z,28.40
2018-06-09T13:31:39.189Z,28.40
2018-06-09T13:32:43.346Z,28.40
2018-06-09T13:33:47.671Z,28.30
2018-06-09T13:34:52.807Z,28.40
2018-06-09T13:35:57.184Z,28.30
2018-06-09T13:37:01.914Z,28.20
2018-06-09T13:38:06.327Z,28.20
2018-06-09T13:39:11.695Z,28.20
2018-06-09T13:40:16.189Z,27.60
2018-06-09T13:41:20.555Z,28.20
2018-06-09T13:42:25.154Z,28.10
2018-06-09T13:43:29.520Z,28.10
2018-06-09T13:44:33.900Z,28.20
2018-06-09T13:45:38.422Z,28.20
2018-06-09T13:46:43.021Z,28.10
2018-06-09T13:47:47.713Z,28.10
2018-06-09T13:48:52.084Z,28.10
2018-06-09T13:49:56.781Z,28.10
2018-06-09T13:51:01.222Z,28.00
2018-06-09T13:52:05.750Z,28.00
2018-06-09T13:53:10.411Z,28.00
2018-06-09T13:54:14.808Z,28.00
2018-06-09T13:55:19.450Z,28.00
2018-06-09T13:56:23.849Z,27.90
2018-06-09T13:57:28.369Z,27.90
2018-06-09T13:58:32.823Z,28.30
2018-06-09T13:59:37.350Z,27.80
2018-06-09T14:00:41.520Z,27.80
2018-06-09T14:01:45.630Z,27.80
2018-06-09T14:04:08.388Z,27.90
2018-06-09T14:05:18.629Z,27.80
2018-06-09T14:06:26.287Z,27.80
2018-06-09T14:07:30.548Z,27.80
2018-06-09T14:08:34.846Z,27.80
2018-06-09T14:09:39.109Z,28.50
2018-06-09T14:10:43.881Z,27.90
2018-06-09T14:11:48.487Z,27.90
2018-06-09T14:12:52.879Z,27.80
2018-06-09T14:13:57.260Z,27.80
2018-06-09T14:15:01.671Z,27.80
2018-06-09T14:16:06.506Z,27.90
2018-06-09T14:17:11.439Z,27.90
2018-06-09T14:19:19.888Z,27.30
2018-06-09T14:20:24.410Z,27.80
2018-06-09T14:21:28.859Z,27.80
2018-06-09T14:22:36.135Z,27.80
2018-06-09T14:23:40.754Z,27.70
2018-06-09T14:24:45.135Z,27.70
2018-06-09T14:25:49.489Z,27.70